Pineville, LA (71360)

6:32 PM CST on February 14, 2016 (GMT -0600)
Rigolette | | Change Station
CLOSE
Current Station
Personal Weather Station
Location: Pineville, LA
Elevation: 98 ft
Nearby Weather Stations

Elev 98 ft 31.38 °N, 92.47 °W | Updated 1 minute ago

Overcast
Overcast
61.6 °F
Feels Like 61.6 °F
N
0.0
Wind Variable Wind from ESE
Gusts 0.0 mph

Today
High -- | Low -- °F
--% Chance of Precip.
Yesterday
High -- | Low -- °F
Precip. -- in
Pressure 29.98 in
Visibility 10.0 miles
Clouds Scattered Clouds 3200 ft
Scattered Clouds 4500 ft
Overcast 5500 ft
Dew Point 56 °F
Humidity 83%
Rainfall 0.00 in
Snow Depth Not available.
6:52 AM 5:55 PM
Waxing Crescent, 47% visible
METAR KESF 142353Z AUTO 17006KT 10SM SCT032 SCT045 OVC055 17/13 A2998 RMK AO2 RAB2254E45 SLP151 P0001 60002 T01720133 10211 20167 58007
Pressure 29.98 in
Visibility 10.0 miles
Clouds Scattered Clouds 3200 ft
Scattered Clouds 4500 ft
Overcast 5500 ft
Dew Point 56 °F
Humidity 83%
Rainfall 0.00 in
Snow Depth Not available.
6:52 AM 5:55 PM
Waxing Crescent, 47% visible
METAR KESF 142353Z AUTO 17006KT 10SM SCT032 SCT045 OVC055 17/13 A2998 RMK AO2 RAB2254E45 SLP151 P0001 60002 T01720133 10211 20167 58007

10-Day Weather Forecast

Almanac

Astronomy

Feb. 14, 2016 Rise Set
Actual Time
Civil Twilight
Nautical Twilight
Astronomical Twilight
Moon
Length of Visible Light
Length of Day
Tomorrow will be .
, % of the Moon is Illuminated

Today's Extremes

State Highs State Lows

Community

WunderPhotos

Upload Photos

1,892,950 photos uploaded!

WunderBlog® & News

Nearby

Air Quality

  Air Quality AQ Index Pollutant
Not available.

Snow Depth

Station Depth Elevation

Earthquake Activity

City Distance Mag. Time & Date
Minimum magnitude displayed is 2.5.

Coastal Water Temperatures

Place Temperature

Stations

Nearby Weather Stations

Station Location Temp. Windchill Dew Point Humidity Wind Precip. Elev Updated Type
                   

Watches & Warnings

There are currently no watches in effect.